createdAt,value
2018-12-13T00:01:22.130Z,1.26
2018-12-13T00:03:51.920Z,1.26
2018-12-13T00:06:20.632Z,1.28
2018-12-13T00:08:49.630Z,1.31
2018-12-13T00:11:18.684Z,1.30
2018-12-13T00:13:47.725Z,1.33
2018-12-13T00:16:16.406Z,1.45
2018-12-13T00:18:46.665Z,1.48
2018-12-13T00:21:15.597Z,1.50
2018-12-13T00:23:44.318Z,1.49
2018-12-13T00:26:13.332Z,1.43
2018-12-13T00:28:42.169Z,1.41
2018-12-13T00:31:11.170Z,1.46
2018-12-13T00:33:39.954Z,1.45
2018-12-13T00:36:08.672Z,1.42
2018-12-13T00:38:37.530Z,1.41
2018-12-13T00:41:06.247Z,1.39
2018-12-13T00:43:35.335Z,1.29
2018-12-13T00:46:04.102Z,1.32
2018-12-13T00:48:33.079Z,1.36
2018-12-13T00:51:01.895Z,1.33
2018-12-13T00:53:30.582Z,1.35
2018-12-13T00:55:59.565Z,1.29
2018-12-13T00:58:28.651Z,1.13
2018-12-13T01:01:01.438Z,1.11
2018-12-13T01:03:30.763Z,1.09
2018-12-13T01:06:00.226Z,1.11
2018-12-13T01:08:29.120Z,1.07
2018-12-13T01:10:58.377Z,0.98
2018-12-13T01:13:27.206Z,0.89
2018-12-13T01:15:56.314Z,0.95
2018-12-13T01:18:25.602Z,0.88
2018-12-13T01:20:54.396Z,0.82
2018-12-13T01:23:23.620Z,0.75
2018-12-13T01:25:52.747Z,0.55
2018-12-13T01:28:21.755Z,0.46
2018-12-13T01:30:50.950Z,0.47
2018-12-13T01:33:19.836Z,0.47
2018-12-13T01:35:48.800Z,0.50
2018-12-13T01:38:17.496Z,0.64
2018-12-13T01:40:46.384Z,0.72
2018-12-13T01:43:15.722Z,0.70
2018-12-13T01:45:44.726Z,0.75
2018-12-13T01:48:13.817Z,0.75
2018-12-13T01:50:42.619Z,0.76
2018-12-13T01:53:11.621Z,0.61
2018-12-13T01:55:41.296Z,0.63
2018-12-13T01:58:09.995Z,0.61
2018-12-13T02:00:38.657Z,0.45
2018-12-13T02:03:07.446Z,0.44
2018-12-13T02:05:36.448Z,0.45
2018-12-13T02:08:05.175Z,0.47
2018-12-13T02:10:33.892Z,0.50
2018-12-13T02:13:02.608Z,0.57
2018-12-13T02:18:12.964Z,0.46
2018-12-13T02:20:42.129Z,0.46
2018-12-13T02:23:10.816Z,0.41
2018-12-13T02:25:39.619Z,0.34
2018-12-13T02:28:08.709Z,0.38
2018-12-13T02:30:37.701Z,0.43
2018-12-13T02:33:06.755Z,0.48
2018-12-13T02:35:35.791Z,0.49
2018-12-13T02:38:04.772Z,0.49
2018-12-13T02:40:33.728Z,0.49
2018-12-13T02:43:02.453Z,0.43
2018-12-13T02:45:31.406Z,0.24
2018-12-13T02:48:00.073Z,0.21
2018-12-13T02:50:28.941Z,0.21
2018-12-13T02:52:57.797Z,0.11
2018-12-13T02:55:26.580Z,0.12
2018-12-13T02:57:55.317Z,0.18
2018-12-13T03:00:24.181Z,0.16
2018-12-13T03:02:53.260Z,0.20
2018-12-13T03:05:22.348Z,0.23
2018-12-13T03:07:51.521Z,0.11
2018-12-13T03:10:20.508Z,0.03
2018-12-13T03:12:49.404Z,0.02
2018-12-13T03:15:18.456Z,0.05
2018-12-13T03:17:47.283Z,0.02
2018-12-13T03:20:16.315Z,0.01
2018-12-13T03:22:45.023Z,-0.08
2018-12-13T03:25:14.555Z,0.10
2018-12-13T03:27:43.661Z,0.15
2018-12-13T03:30:12.813Z,0.12
2018-12-13T03:32:41.686Z,0.04
2018-12-13T03:35:10.414Z,0.06
2018-12-13T03:37:39.595Z,-0.07
2018-12-13T03:40:08.710Z,-0.12
2018-12-13T03:42:37.443Z,-0.10
2018-12-13T03:45:06.597Z,0.04
2018-12-13T03:47:35.478Z,-0.01
2018-12-13T03:50:04.916Z,-0.06
2018-12-13T03:52:33.875Z,-0.18
2018-12-13T03:55:02.838Z,-0.31
2018-12-13T03:57:31.579Z,-0.40
2018-12-13T04:00:00.346Z,-0.34
2018-12-13T04:02:30.184Z,-0.37
2018-12-13T04:04:59.221Z,-0.41
2018-12-13T04:07:28.031Z,-0.43
2018-12-13T04:09:56.884Z,-0.51
2018-12-13T04:12:25.675Z,-0.50
2018-12-13T04:14:54.454Z,-0.49
2018-12-13T04:17:23.162Z,-0.50
2018-12-13T04:19:52.396Z,-0.56
2018-12-13T04:22:21.441Z,-0.68
2018-12-13T04:24:50.293Z,-0.79
2018-12-13T04:27:19.157Z,-0.87
2018-12-13T04:29:48.185Z,-0.91
2018-12-13T04:32:17.350Z,-0.94
2018-12-13T04:34:46.384Z,-0.95
2018-12-13T04:37:15.077Z,-1.02
2018-12-13T04:39:44.235Z,-1.02
2018-12-13T04:42:13.064Z,-1.11
2018-12-13T04:44:41.974Z,-1.18
2018-12-13T04:47:10.947Z,-1.09
2018-12-13T04:49:39.712Z,-1.02
2018-12-13T04:52:08.763Z,-1.08
2018-12-13T04:54:37.955Z,-1.09
2018-12-13T04:57:07.000Z,-1.06
2018-12-13T04:59:36.000Z,-1.08
2018-12-13T05:02:05.568Z,-0.99
2018-12-13T05:04:34.540Z,-1.02
2018-12-13T05:07:04.090Z,-1.04
2018-12-13T05:09:33.164Z,-1.04
2018-12-13T05:12:02.159Z,-0.96
2018-12-13T05:14:30.803Z,-1.06
2018-12-13T05:16:59.759Z,-1.13
2018-12-13T05:19:28.720Z,-1.13
2018-12-13T05:21:58.443Z,-0.93
2018-12-13T05:24:27.331Z,-0.69
2018-12-13T05:26:55.992Z,-0.54
2018-12-13T05:29:24.791Z,-0.59
2018-12-13T05:31:53.821Z,-0.60
2018-12-13T05:34:22.847Z,-0.69
2018-12-13T05:36:51.573Z,-0.65
2018-12-13T05:39:20.805Z,-0.71
2018-12-13T05:41:49.777Z,-0.73
2018-12-13T05:44:22.529Z,-0.67
2018-12-13T05:46:51.634Z,-0.68
2018-12-13T05:49:20.605Z,-0.63
2018-12-13T05:51:49.360Z,-0.60
2018-12-13T05:54:18.119Z,-0.50
2018-12-13T05:56:46.902Z,-0.62
2018-12-13T05:59:16.340Z,-0.72
2018-12-13T06:01:45.089Z,-0.79
2018-12-13T06:04:14.118Z,-0.80
2018-12-13T06:06:43.292Z,-0.90
2018-12-13T06:09:12.046Z,-0.91
2018-12-13T06:11:41.129Z,-0.95
2018-12-13T06:14:09.867Z,-1.03
2018-12-13T06:16:38.971Z,-1.04
2018-12-13T06:19:07.860Z,-1.07
2018-12-13T06:21:37.199Z,-1.09
2018-12-13T06:24:06.530Z,-1.08
2018-12-13T06:26:35.449Z,-0.94
2018-12-13T06:29:04.258Z,-0.90
2018-12-13T06:31:33.029Z,-0.83
2018-12-13T06:34:01.786Z,-0.87
2018-12-13T06:36:30.551Z,-0.85
2018-12-13T06:38:59.464Z,-0.81
2018-12-13T06:41:28.133Z,-0.80
2018-12-13T06:43:56.869Z,-0.73
2018-12-13T06:46:25.633Z,-0.75
2018-12-13T06:48:55.053Z,-0.75
2018-12-13T06:51:24.007Z,-0.74
2018-12-13T06:53:52.876Z,-0.76
2018-12-13T06:56:22.014Z,-0.64
2018-12-13T06:58:50.968Z,-0.54
2018-12-13T07:01:19.808Z,-0.54
2018-12-13T07:03:48.496Z,-0.43
2018-12-13T07:06:17.424Z,-0.40
2018-12-13T07:08:46.593Z,-0.31
2018-12-13T07:11:15.656Z,-0.31
2018-12-13T07:13:44.504Z,-0.31
2018-12-13T07:16:13.595Z,-0.21
2018-12-13T07:18:42.378Z,-0.11
2018-12-13T07:21:11.177Z,-0.01
2018-12-13T07:23:40.073Z,0.02
2018-12-13T07:26:08.750Z,0.01
2018-12-13T07:28:37.633Z,0.01
2018-12-13T07:31:06.745Z,0.02
2018-12-13T07:33:35.517Z,0.13
2018-12-13T07:36:04.365Z,0.07
2018-12-13T07:38:33.325Z,0.13
2018-12-13T07:41:02.129Z,0.26
2018-12-13T07:43:31.105Z,0.29
2018-12-13T07:45:59.838Z,0.34
2018-12-13T07:48:28.866Z,0.47
2018-12-13T07:50:57.817Z,0.58
2018-12-13T07:53:26.519Z,0.66
2018-12-13T07:55:55.253Z,0.65
2018-12-13T07:58:24.328Z,0.73
2018-12-13T08:00:53.245Z,0.92
2018-12-13T08:03:22.198Z,1.13
2018-12-13T08:05:51.286Z,1.25
2018-12-13T08:08:21.143Z,1.40
2018-12-13T08:10:50.207Z,1.66
2018-12-13T08:13:19.364Z,1.61
2018-12-13T08:15:48.514Z,1.51
2018-12-13T08:18:17.420Z,1.60
2018-12-13T08:20:46.207Z,1.72
2018-12-13T08:23:15.261Z,1.83
2018-12-13T08:25:44.121Z,1.92
2018-12-13T08:28:13.243Z,2.21
2018-12-13T08:30:42.047Z,2.43
2018-12-13T08:33:10.974Z,2.44
2018-12-13T08:35:39.907Z,2.65
2018-12-13T08:38:09.633Z,2.77
2018-12-13T08:40:38.436Z,2.89
2018-12-13T08:43:07.279Z,2.90
2018-12-13T08:45:36.373Z,2.92
2018-12-13T08:48:05.324Z,3.02
2018-12-13T08:50:34.085Z,3.13
2018-12-13T08:53:02.987Z,3.16
2018-12-13T08:55:31.657Z,3.24
2018-12-13T08:58:00.909Z,3.34
2018-12-13T09:00:29.621Z,3.38
2018-12-13T09:02:58.638Z,3.48
2018-12-13T09:05:27.543Z,3.47
2018-12-13T09:07:56.515Z,3.68
2018-12-13T09:10:25.714Z,3.71
2018-12-13T09:12:54.909Z,3.74
2018-12-13T09:15:24.361Z,3.73
2018-12-13T09:17:53.700Z,3.66
2018-12-13T09:20:22.675Z,3.77
2018-12-13T09:22:51.647Z,3.88
2018-12-13T09:25:20.714Z,3.93
2018-12-13T09:27:49.832Z,4.09
2018-12-13T09:30:18.705Z,4.12
2018-12-13T09:32:47.432Z,4.24
2018-12-13T09:35:16.311Z,4.36
2018-12-13T09:37:47.708Z,4.42
2018-12-13T09:40:16.359Z,4.51
2018-12-13T09:42:45.124Z,4.49
2018-12-13T09:45:14.129Z,4.58
2018-12-13T09:47:43.116Z,4.56
2018-12-13T09:50:12.040Z,4.74
2018-12-13T09:52:41.038Z,4.70
2018-12-13T09:55:10.104Z,4.76
2018-12-13T09:57:39.143Z,4.86
2018-12-13T10:00:09.796Z,4.88
2018-12-13T10:02:38.668Z,4.89
2018-12-13T10:05:07.429Z,5.09
2018-12-13T10:07:36.128Z,4.99
2018-12-13T10:10:05.755Z,5.00
2018-12-13T10:12:34.883Z,5.15
2018-12-13T10:15:03.992Z,5.18
2018-12-13T10:17:33.032Z,5.22
2018-12-13T10:20:02.393Z,5.34
2018-12-13T10:22:31.209Z,5.42
2018-12-13T10:25:00.566Z,5.52
2018-12-13T10:27:29.566Z,5.52
2018-12-13T10:29:58.634Z,5.61
2018-12-13T10:32:27.357Z,5.66
2018-12-13T10:34:56.289Z,5.78
2018-12-13T10:37:25.083Z,5.88
2018-12-13T10:39:53.864Z,5.91
2018-12-13T10:42:22.771Z,5.89
2018-12-13T10:44:51.562Z,5.96
2018-12-13T10:47:20.707Z,5.92
2018-12-13T10:49:49.682Z,5.85
2018-12-13T10:52:18.499Z,5.94
2018-12-13T10:54:49.031Z,5.96
2018-12-13T10:57:18.070Z,6.04
2018-12-13T10:59:46.748Z,6.07
2018-12-13T11:02:20.861Z,6.16
2018-12-13T11:04:49.667Z,6.20
2018-12-13T11:07:18.538Z,6.19
2018-12-13T11:09:47.612Z,6.17
2018-12-13T11:12:16.402Z,6.19
2018-12-13T11:14:45.482Z,6.33
2018-12-13T11:17:14.620Z,6.35
2018-12-13T11:19:43.574Z,6.40
2018-12-13T11:22:12.721Z,6.33
2018-12-13T11:24:41.484Z,6.44
2018-12-13T11:28:21.550Z,6.50
2018-12-13T11:30:50.680Z,6.44
2018-12-13T11:33:19.535Z,6.51
2018-12-13T11:35:48.707Z,6.48
2018-12-13T11:38:17.789Z,6.42
2018-12-13T11:40:46.822Z,6.52
2018-12-13T11:43:15.921Z,6.52
2018-12-13T11:45:45.516Z,6.56
2018-12-13T11:48:15.396Z,6.65
2018-12-13T11:50:44.098Z,6.68
2018-12-13T11:53:13.450Z,6.72
2018-12-13T11:55:42.651Z,6.73
2018-12-13T11:58:14.382Z,6.77
2018-12-13T12:00:43.422Z,6.84
2018-12-13T12:03:12.350Z,6.95
2018-12-13T12:05:41.314Z,6.88
2018-12-13T12:08:10.319Z,6.94
2018-12-13T12:10:39.022Z,6.97
2018-12-13T12:13:09.009Z,7.02
2018-12-13T12:15:38.502Z,6.98
2018-12-13T12:18:07.552Z,7.06
2018-12-13T12:20:36.264Z,7.17
2018-12-13T12:23:05.318Z,7.12
2018-12-13T12:25:34.021Z,7.25
2018-12-13T12:28:02.912Z,7.27
2018-12-13T12:30:32.037Z,7.19
2018-12-13T12:33:01.192Z,7.32
2018-12-13T12:35:30.443Z,7.45
2018-12-13T12:37:59.578Z,7.53
2018-12-13T12:40:28.555Z,7.58
2018-12-13T12:42:58.438Z,7.61
2018-12-13T12:45:27.095Z,7.60
2018-12-13T12:47:56.096Z,7.53
2018-12-13T12:50:25.029Z,7.45
2018-12-13T12:52:53.922Z,7.37
2018-12-13T12:55:22.889Z,7.34
2018-12-13T12:57:52.020Z,7.31
2018-12-13T13:00:21.024Z,7.23
2018-12-13T13:02:50.406Z,7.20
2018-12-13T13:05:19.379Z,7.18
2018-12-13T13:07:48.112Z,7.15
2018-12-13T13:10:17.518Z,7.11
2018-12-13T13:12:46.397Z,7.15
2018-12-13T13:15:15.438Z,7.22
2018-12-13T13:17:44.297Z,7.20
2018-12-13T13:20:13.348Z,7.11
2018-12-13T13:22:42.288Z,7.12
2018-12-13T13:25:11.293Z,7.08
2018-12-13T13:27:40.244Z,7.02
2018-12-13T13:30:09.545Z,6.95
2018-12-13T13:32:38.329Z,6.88
2018-12-13T13:35:07.289Z,6.81
2018-12-13T13:37:36.773Z,6.75
2018-12-13T13:40:05.958Z,6.70
2018-12-13T13:42:35.181Z,6.59
2018-12-13T13:45:04.594Z,6.53
2018-12-13T13:47:33.355Z,6.42
2018-12-13T13:50:02.136Z,6.37
2018-12-13T13:52:31.164Z,6.27
2018-12-13T13:54:59.893Z,6.32
2018-12-13T13:57:28.642Z,6.35
2018-12-13T13:59:57.584Z,6.27
2018-12-13T14:02:26.730Z,6.17
2018-12-13T14:04:55.657Z,6.13
2018-12-13T14:07:24.725Z,6.11
2018-12-13T14:09:53.678Z,6.07
2018-12-13T14:12:22.487Z,6.03
2018-12-13T14:14:51.526Z,5.96
2018-12-13T14:17:20.674Z,5.96
2018-12-13T14:19:49.466Z,5.96
2018-12-13T14:22:18.837Z,5.94
2018-12-13T14:24:47.702Z,5.85
2018-12-13T14:27:16.962Z,5.81
2018-12-13T14:29:45.811Z,5.84
2018-12-13T14:32:14.783Z,5.74
2018-12-13T14:34:43.867Z,5.75
2018-12-13T14:37:12.809Z,5.70
2018-12-13T14:39:44.621Z,5.65
2018-12-13T14:42:12.947Z,5.63
2018-12-13T14:44:41.787Z,5.52
2018-12-13T14:47:10.914Z,5.37
2018-12-13T14:49:40.650Z,5.25
2018-12-13T14:52:10.171Z,5.23
2018-12-13T14:54:39.648Z,5.10
2018-12-13T14:57:08.704Z,5.04
2018-12-13T14:59:37.838Z,5.03
2018-12-13T15:02:06.827Z,5.10
2018-12-13T15:04:35.869Z,4.96
2018-12-13T15:07:05.013Z,4.86
2018-12-13T15:09:34.107Z,4.83
2018-12-13T15:12:02.896Z,4.75
2018-12-13T15:14:31.839Z,4.54
2018-12-13T15:17:00.933Z,4.46
2018-12-13T15:19:29.828Z,4.42
2018-12-13T15:21:58.825Z,4.42
2018-12-13T15:24:27.840Z,4.56
2018-12-13T15:26:56.605Z,4.63
2018-12-13T15:29:25.657Z,4.55
2018-12-13T15:31:59.312Z,4.58
2018-12-13T15:34:25.507Z,4.59
2018-12-13T15:36:59.115Z,4.60
2018-12-13T15:39:28.088Z,4.60
2018-12-13T15:41:57.170Z,4.54
2018-12-13T15:44:26.383Z,4.52
2018-12-13T15:46:55.468Z,4.40
2018-12-13T15:49:24.581Z,4.39
2018-12-13T15:51:53.569Z,4.26
2018-12-13T15:54:22.690Z,4.10
2018-12-13T15:56:51.637Z,4.06
2018-12-13T15:59:20.642Z,4.03
2018-12-13T16:01:49.645Z,3.94
2018-12-13T16:04:18.456Z,3.91
2018-12-13T16:06:47.783Z,4.08
2018-12-13T16:09:16.837Z,4.04
2018-12-13T16:11:45.897Z,3.99
2018-12-13T16:14:14.976Z,3.92
2018-12-13T16:16:44.208Z,3.91
2018-12-13T16:19:13.234Z,4.01
2018-12-13T16:21:43.014Z,3.95
2018-12-13T16:24:12.324Z,3.96
2018-12-13T16:26:41.260Z,3.94
2018-12-13T16:29:10.846Z,3.95
2018-12-13T16:31:40.096Z,3.92
2018-12-13T16:34:09.255Z,3.96
2018-12-13T16:36:38.002Z,4.00
2018-12-13T16:39:08.577Z,4.08
2018-12-13T16:41:37.666Z,4.04
2018-12-13T16:44:07.060Z,4.02
2018-12-13T16:46:35.971Z,4.06
2018-12-13T16:49:05.456Z,4.09
2018-12-13T16:51:34.443Z,4.06
2018-12-13T16:54:03.559Z,4.02
2018-12-13T16:56:32.588Z,3.94
2018-12-13T16:59:01.547Z,3.86
2018-12-13T17:01:30.671Z,3.90
2018-12-13T17:03:59.670Z,3.91
2018-12-13T17:06:28.869Z,3.90
2018-12-13T17:08:58.043Z,4.02
2018-12-13T17:11:27.025Z,4.06
2018-12-13T17:13:55.986Z,4.09
2018-12-13T17:16:25.112Z,4.10
2018-12-13T17:18:53.909Z,4.06
2018-12-13T17:21:22.991Z,4.02
2018-12-13T17:23:51.729Z,3.91
2018-12-13T17:26:20.947Z,3.81
2018-12-13T17:28:49.818Z,3.77
2018-12-13T17:31:18.851Z,3.67
2018-12-13T17:33:47.989Z,3.80
2018-12-13T17:36:17.077Z,3.83
2018-12-13T17:38:46.087Z,3.89
2018-12-13T17:41:14.842Z,3.81
2018-12-13T17:43:43.861Z,3.84
2018-12-13T17:46:13.306Z,3.96
2018-12-13T17:48:42.372Z,3.90
2018-12-13T17:51:11.505Z,3.92
2018-12-13T17:53:40.473Z,3.82
2018-12-13T17:56:09.589Z,3.83
2018-12-13T17:58:38.545Z,3.86
2018-12-13T18:01:07.609Z,3.73
2018-12-13T18:03:36.909Z,3.77
2018-12-13T18:06:05.727Z,3.72
2018-12-13T18:08:34.428Z,3.65
2018-12-13T18:11:03.147Z,3.73
2018-12-13T18:13:32.037Z,3.65
2018-12-13T18:16:00.996Z,3.75
2018-12-13T18:18:30.406Z,3.69
2018-12-13T18:20:59.629Z,3.66
2018-12-13T18:23:28.674Z,3.65
2018-12-13T18:25:57.690Z,3.62
2018-12-13T18:28:26.471Z,3.68
2018-12-13T18:30:55.535Z,3.63
2018-12-13T18:33:24.521Z,3.70
2018-12-13T18:35:53.542Z,3.74
2018-12-13T18:38:22.620Z,3.73
2018-12-13T18:40:51.633Z,3.68
2018-12-13T18:43:20.847Z,3.67
2018-12-13T18:45:49.970Z,3.62
2018-12-13T18:48:18.722Z,3.55
2018-12-13T18:50:47.504Z,3.39
2018-12-13T18:53:16.548Z,3.37
2018-12-13T18:55:45.275Z,3.35
2018-12-13T18:58:14.419Z,3.33
2018-12-13T19:00:43.314Z,3.28
2018-12-13T19:03:12.537Z,3.40
2018-12-13T19:05:41.627Z,3.37
2018-12-13T19:08:10.612Z,3.36
2018-12-13T19:10:42.003Z,3.39
2018-12-13T19:13:10.777Z,3.47
2018-12-13T19:15:40.196Z,3.42
2018-12-13T19:18:09.389Z,3.33
2018-12-13T19:20:38.223Z,3.26
2018-12-13T19:23:06.963Z,3.16
2018-12-13T19:25:35.993Z,3.14
2018-12-13T19:28:05.036Z,3.10
2018-12-13T19:30:33.941Z,3.14
2018-12-13T19:33:03.050Z,3.15
2018-12-13T19:35:31.894Z,3.12
2018-12-13T19:38:00.666Z,3.21
2018-12-13T19:40:29.836Z,3.29
2018-12-13T19:42:59.063Z,3.42
2018-12-13T19:45:27.842Z,3.37
2018-12-13T19:47:56.610Z,3.44
2018-12-13T19:50:25.409Z,3.59
2018-12-13T19:52:54.492Z,3.65
2018-12-13T19:55:23.463Z,3.61
2018-12-13T19:57:52.353Z,3.66
2018-12-13T20:00:21.391Z,3.74
2018-12-13T20:02:50.187Z,3.58
2018-12-13T20:05:19.200Z,3.62
2018-12-13T20:07:48.017Z,3.58
2018-12-13T20:10:16.772Z,3.48
2018-12-13T20:12:45.717Z,3.44
2018-12-13T20:15:14.757Z,3.33
2018-12-13T20:17:43.578Z,3.40
2018-12-13T20:20:12.723Z,3.43
2018-12-13T20:22:41.783Z,3.33
2018-12-13T20:25:10.743Z,3.27
2018-12-13T20:27:40.284Z,3.14
2018-12-13T20:30:10.076Z,3.05
2018-12-13T20:32:38.864Z,3.11
2018-12-13T20:35:07.836Z,3.22
2018-12-13T20:37:36.958Z,3.18
2018-12-13T20:40:06.033Z,3.28
2018-12-13T20:42:34.959Z,3.24
2018-12-13T20:45:03.957Z,3.15
2018-12-13T20:47:33.004Z,3.39
2018-12-13T20:50:02.059Z,3.42
2018-12-13T20:52:30.750Z,3.55
2018-12-13T20:54:59.718Z,3.51
2018-12-13T20:57:28.962Z,3.47
2018-12-13T20:59:57.754Z,3.36
2018-12-13T21:02:26.814Z,3.30
2018-12-13T21:04:56.166Z,3.26
2018-12-13T21:07:30.329Z,3.18
2018-12-13T21:09:59.191Z,3.14
2018-12-13T21:12:28.433Z,3.14
2018-12-13T21:14:57.588Z,3.11
2018-12-13T21:17:26.408Z,3.11
2018-12-13T21:19:55.145Z,3.10
2018-12-13T21:22:23.912Z,3.09
2018-12-13T21:24:52.737Z,3.08
2018-12-13T21:27:21.822Z,3.11
2018-12-13T21:29:50.632Z,3.14
2018-12-13T21:32:19.591Z,3.18
2018-12-13T21:34:48.318Z,3.17
2018-12-13T21:37:17.303Z,3.17
2018-12-13T21:39:46.362Z,3.21
2018-12-13T21:42:15.299Z,3.26
2018-12-13T21:44:44.014Z,3.27
2018-12-13T21:47:12.982Z,3.23
2018-12-13T21:49:41.865Z,3.16
2018-12-13T21:52:10.864Z,3.15
2018-12-13T21:54:39.759Z,3.16
2018-12-13T21:57:08.803Z,3.14
2018-12-13T21:59:37.803Z,3.14
2018-12-13T22:02:06.757Z,3.15
2018-12-13T22:04:35.724Z,3.14
2018-12-13T22:07:05.398Z,3.08
2018-12-13T22:09:34.400Z,3.05
2018-12-13T22:12:03.135Z,3.04
2018-12-13T22:14:32.203Z,3.00
2018-12-13T22:17:01.135Z,2.88
2018-12-13T22:19:30.666Z,2.90
2018-12-13T22:21:59.431Z,2.88
2018-12-13T22:24:28.089Z,2.89
2018-12-13T22:26:56.742Z,2.85
2018-12-13T22:29:25.672Z,2.72
2018-12-13T22:31:54.741Z,2.70
2018-12-13T22:34:24.027Z,2.73
2018-12-13T22:36:52.966Z,2.72
2018-12-13T22:39:21.849Z,2.73
2018-12-13T22:41:50.897Z,2.81
2018-12-13T22:44:19.619Z,2.83
2018-12-13T22:46:48.740Z,2.86
2018-12-13T22:49:17.572Z,2.91
2018-12-13T22:51:46.637Z,2.86
2018-12-13T22:54:15.619Z,2.74
2018-12-13T22:56:44.382Z,2.61
2018-12-13T22:59:13.412Z,2.87
2018-12-13T23:01:42.656Z,2.97
2018-12-13T23:04:11.319Z,2.95
2018-12-13T23:06:40.365Z,2.86
2018-12-13T23:09:09.162Z,2.86
2018-12-13T23:11:38.006Z,2.84
2018-12-13T23:14:06.960Z,2.77
2018-12-13T23:16:35.655Z,2.71
2018-12-13T23:19:04.603Z,2.62
2018-12-13T23:21:33.235Z,2.55
2018-12-13T23:24:01.951Z,2.56
2018-12-13T23:26:30.608Z,2.52
2018-12-13T23:28:59.416Z,2.47
2018-12-13T23:31:28.568Z,2.40
2018-12-13T23:33:57.680Z,2.31
2018-12-13T23:36:26.534Z,2.18
2018-12-13T23:38:55.522Z,2.21
2018-12-13T23:41:24.249Z,2.30
2018-12-13T23:43:53.022Z,2.19
2018-12-13T23:46:22.125Z,2.02
2018-12-13T23:48:50.781Z,2.03
2018-12-13T23:51:19.826Z,2.04
2018-12-13T23:53:48.525Z,2.12
2018-12-13T23:56:17.210Z,2.12
2018-12-13T23:58:46.276Z,2.28
